sensor_id;sensor_type;location;lat;lon;timestamp;P1;durP1;ratioP1;P2;durP2;ratioP2
19798;SDS011;10059;59.850;10.454;2022-10-31T00:00:07;12.17;;;7.00;;
19798;SDS011;10059;59.850;10.454;2022-10-31T00:02:36;16.20;;;8.10;;
19798;SDS011;10059;59.850;10.454;2022-10-31T00:05:05;12.67;;;7.70;;
19798;SDS011;10059;59.850;10.454;2022-10-31T00:07:32;15.87;;;8.03;;
19798;SDS011;10059;59.850;10.454;2022-10-31T00:09:59;12.97;;;8.00;;
19798;SDS011;10059;59.850;10.454;2022-10-31T00:12:25;13.37;;;7.57;;
19798;SDS011;10059;59.850;10.454;2022-10-31T00:14:52;15.77;;;7.53;;
19798;SDS011;10059;59.850;10.454;2022-10-31T00:17:19;15.43;;;7.23;;
19798;SDS011;10059;59.850;10.454;2022-10-31T00:19:46;13.07;;;7.67;;
19798;SDS011;10059;59.850;10.454;2022-10-31T00:22:14;12.23;;;7.17;;
19798;SDS011;10059;59.850;10.454;2022-10-31T00:24:41;13.23;;;7.33;;
19798;SDS011;10059;59.850;10.454;2022-10-31T00:27:08;93.37;;;10.33;;
19798;SDS011;10059;59.850;10.454;2022-10-31T00:29:35;141.03;;;12.60;;
19798;SDS011;10059;59.850;10.454;2022-10-31T00:32:02;381.13;;;16.93;;
19798;SDS011;10059;59.850;10.454;2022-10-31T00:34:29;226.57;;;15.33;;
19798;SDS011;10059;59.850;10.454;2022-10-31T00:36:56;102.17;;;11.63;;
19798;SDS011;10059;59.850;10.454;2022-10-31T00:39:24;60.50;;;10.60;;
19798;SDS011;10059;59.850;10.454;2022-10-31T00:41:51;412.70;;;15.90;;
19798;SDS011;10059;59.850;10.454;2022-10-31T00:44:18;441.60;;;15.80;;
19798;SDS011;10059;59.850;10.454;2022-10-31T00:46:45;292.80;;;13.03;;
19798;SDS011;10059;59.850;10.454;2022-10-31T00:49:12;142.67;;;10.50;;
19798;SDS011;10059;59.850;10.454;2022-10-31T00:51:38;130.17;;;11.17;;
19798;SDS011;10059;59.850;10.454;2022-10-31T00:54:05;20.63;;;8.50;;
19798;SDS011;10059;59.850;10.454;2022-10-31T00:56:34;61.53;;;10.07;;
19798;SDS011;10059;59.850;10.454;2022-10-31T00:59:00;180.33;;;12.97;;
19798;SDS011;10059;59.850;10.454;2022-10-31T01:01:27;147.73;;;11.40;;
19798;SDS011;10059;59.850;10.454;2022-10-31T01:03:54;192.03;;;12.70;;
19798;SDS011;10059;59.850;10.454;2022-10-31T01:06:21;297.40;;;14.33;;
19798;SDS011;10059;59.850;10.454;2022-10-31T01:08:48;74.87;;;10.57;;
19798;SDS011;10059;59.850;10.454;2022-10-31T01:11:16;50.70;;;10.10;;
19798;SDS011;10059;59.850;10.454;2022-10-31T01:13:46;15.30;;;8.40;;
19798;SDS011;10059;59.850;10.454;2022-10-31T01:16:14;16.17;;;9.10;;
19798;SDS011;10059;59.850;10.454;2022-10-31T01:18:42;15.93;;;8.23;;
19798;SDS011;10059;59.850;10.454;2022-10-31T01:21:11;15.90;;;8.33;;
19798;SDS011;10059;59.850;10.454;2022-10-31T01:23:39;23.47;;;9.17;;
19798;SDS011;10059;59.850;10.454;2022-10-31T01:26:07;15.93;;;8.53;;
19798;SDS011;10059;59.850;10.454;2022-10-31T01:28:35;15.87;;;8.63;;
19798;SDS011;10059;59.850;10.454;2022-10-31T01:31:05;14.27;;;9.00;;
19798;SDS011;10059;59.850;10.454;2022-10-31T01:33:34;15.67;;;8.47;;
19798;SDS011;10059;59.850;10.454;2022-10-31T01:36:10;16.93;;;9.00;;
19798;SDS011;10059;59.850;10.454;2022-10-31T01:38:38;21.53;;;9.40;;
19798;SDS011;10059;59.850;10.454;2022-10-31T01:41:05;18.83;;;9.27;;
19798;SDS011;10059;59.850;10.454;2022-10-31T01:43:42;16.87;;;8.70;;
19798;SDS011;10059;59.850;10.454;2022-10-31T01:46:15;14.23;;;8.10;;
19798;SDS011;10059;59.850;10.454;2022-10-31T01:48:44;15.30;;;8.63;;
19798;SDS011;10059;59.850;10.454;2022-10-31T01:51:11;15.93;;;8.40;;
19798;SDS011;10059;59.850;10.454;2022-10-31T01:53:40;15.80;;;7.97;;
19798;SDS011;10059;59.850;10.454;2022-10-31T01:56:09;16.80;;;7.67;;
19798;SDS011;10059;59.850;10.454;2022-10-31T01:58:36;18.93;;;8.37;;
19798;SDS011;10059;59.850;10.454;2022-10-31T02:01:03;13.80;;;7.90;;
19798;SDS011;10059;59.850;10.454;2022-10-31T02:03:32;14.43;;;8.10;;
19798;SDS011;10059;59.850;10.454;2022-10-31T02:06:00;20.47;;;9.37;;
19798;SDS011;10059;59.850;10.454;2022-10-31T02:08:33;14.20;;;8.00;;
19798;SDS011;10059;59.850;10.454;2022-10-31T02:11:01;16.37;;;8.00;;
19798;SDS011;10059;59.850;10.454;2022-10-31T02:13:28;18.57;;;8.47;;
19798;SDS011;10059;59.850;10.454;2022-10-31T02:15:57;16.80;;;8.07;;
19798;SDS011;10059;59.850;10.454;2022-10-31T02:18:25;14.77;;;7.30;;
19798;SDS011;10059;59.850;10.454;2022-10-31T02:20:57;20.67;;;8.17;;
19798;SDS011;10059;59.850;10.454;2022-10-31T02:26:49;18.47;;;7.10;;
19798;SDS011;10059;59.850;10.454;2022-10-31T02:32:30;21.97;;;8.73;;
19798;SDS011;10059;59.850;10.454;2022-10-31T02:35:07;25.13;;;9.57;;
19798;SDS011;10059;59.850;10.454;2022-10-31T02:37:41;17.87;;;8.33;;
19798;SDS011;10059;59.850;10.454;2022-10-31T02:40:15;22.10;;;8.40;;
19798;SDS011;10059;59.850;10.454;2022-10-31T02:42:49;26.03;;;8.60;;
19798;SDS011;10059;59.850;10.454;2022-10-31T02:45:27;25.40;;;8.70;;
19798;SDS011;10059;59.850;10.454;2022-10-31T02:47:59;19.57;;;8.30;;
19798;SDS011;10059;59.850;10.454;2022-10-31T02:50:32;21.87;;;9.07;;
19798;SDS011;10059;59.850;10.454;2022-10-31T02:53:02;46.90;;;9.37;;
19798;SDS011;10059;59.850;10.454;2022-10-31T02:55:47;25.70;;;8.50;;
19798;SDS011;10059;59.850;10.454;2022-10-31T02:58:20;29.30;;;8.73;;
19798;SDS011;10059;59.850;10.454;2022-10-31T03:00:55;31.80;;;9.53;;
19798;SDS011;10059;59.850;10.454;2022-10-31T03:03:55;67.47;;;9.90;;
19798;SDS011;10059;59.850;10.454;2022-10-31T03:06:47;29.70;;;9.63;;
19798;SDS011;10059;59.850;10.454;2022-10-31T03:09:20;25.97;;;9.03;;
19798;SDS011;10059;59.850;10.454;2022-10-31T03:11:52;21.23;;;9.90;;
19798;SDS011;10059;59.850;10.454;2022-10-31T03:14:26;53.57;;;10.97;;
19798;SDS011;10059;59.850;10.454;2022-10-31T03:17:01;33.40;;;9.43;;
19798;SDS011;10059;59.850;10.454;2022-10-31T03:19:35;35.07;;;9.27;;
19798;SDS011;10059;59.850;10.454;2022-10-31T03:22:06;31.90;;;9.70;;
19798;SDS011;10059;59.850;10.454;2022-10-31T03:24:38;55.70;;;11.50;;
19798;SDS011;10059;59.850;10.454;2022-10-31T03:27:07;52.87;;;10.73;;
19798;SDS011;10059;59.850;10.454;2022-10-31T03:29:37;55.27;;;11.40;;
19798;SDS011;10059;59.850;10.454;2022-10-31T03:32:06;60.23;;;11.37;;
19798;SDS011;10059;59.850;10.454;2022-10-31T03:34:39;66.37;;;12.07;;
19798;SDS011;10059;59.850;10.454;2022-10-31T03:37:09;131.47;;;13.23;;
19798;SDS011;10059;59.850;10.454;2022-10-31T03:39:39;83.17;;;12.00;;
19798;SDS011;10059;59.850;10.454;2022-10-31T03:42:07;91.23;;;12.80;;
19798;SDS011;10059;59.850;10.454;2022-10-31T03:44:37;60.93;;;11.13;;
19798;SDS011;10059;59.850;10.454;2022-10-31T03:47:07;58.83;;;10.60;;
19798;SDS011;10059;59.850;10.454;2022-10-31T03:49:34;55.00;;;11.60;;
19798;SDS011;10059;59.850;10.454;2022-10-31T03:52:06;158.73;;;12.50;;
19798;SDS011;10059;59.850;10.454;2022-10-31T03:54:44;78.67;;;10.57;;
19798;SDS011;10059;59.850;10.454;2022-10-31T03:57:14;71.80;;;11.50;;
19798;SDS011;10059;59.850;10.454;2022-10-31T03:59:48;76.40;;;10.37;;
19798;SDS011;10059;59.850;10.454;2022-10-31T04:02:20;40.00;;;9.93;;
19798;SDS011;10059;59.850;10.454;2022-10-31T04:04:52;65.97;;;10.30;;
19798;SDS011;10059;59.850;10.454;2022-10-31T04:07:20;128.23;;;11.40;;
19798;SDS011;10059;59.850;10.454;2022-10-31T04:09:53;78.73;;;10.70;;
19798;SDS011;10059;59.850;10.454;2022-10-31T04:12:20;75.87;;;11.80;;
19798;SDS011;10059;59.850;10.454;2022-10-31T04:14:50;60.97;;;12.03;;
19798;SDS011;10059;59.850;10.454;2022-10-31T04:17:19;46.60;;;10.73;;
19798;SDS011;10059;59.850;10.454;2022-10-31T04:19:49;36.70;;;9.83;;
19798;SDS011;10059;59.850;10.454;2022-10-31T04:22:16;43.17;;;10.53;;
19798;SDS011;10059;59.850;10.454;2022-10-31T04:24:44;102.80;;;11.40;;
19798;SDS011;10059;59.850;10.454;2022-10-31T04:27:11;117.53;;;11.13;;
19798;SDS011;10059;59.850;10.454;2022-10-31T04:29:38;140.30;;;12.23;;
19798;SDS011;10059;59.850;10.454;2022-10-31T04:32:05;37.73;;;9.77;;
19798;SDS011;10059;59.850;10.454;2022-10-31T04:34:31;29.37;;;9.73;;
19798;SDS011;10059;59.850;10.454;2022-10-31T04:36:59;56.97;;;10.47;;
19798;SDS011;10059;59.850;10.454;2022-10-31T04:39:25;40.43;;;9.27;;
19798;SDS011;10059;59.850;10.454;2022-10-31T04:41:54;28.70;;;9.50;;
19798;SDS011;10059;59.850;10.454;2022-10-31T04:44:20;61.00;;;10.67;;
19798;SDS011;10059;59.850;10.454;2022-10-31T04:46:47;100.37;;;11.03;;
19798;SDS011;10059;59.850;10.454;2022-10-31T04:49:14;80.70;;;11.10;;
19798;SDS011;10059;59.850;10.454;2022-10-31T04:51:41;70.90;;;10.87;;
19798;SDS011;10059;59.850;10.454;2022-10-31T04:54:08;53.60;;;10.90;;
19798;SDS011;10059;59.850;10.454;2022-10-31T04:56:35;42.70;;;9.83;;
19798;SDS011;10059;59.850;10.454;2022-10-31T04:59:03;44.93;;;10.17;;
19798;SDS011;10059;59.850;10.454;2022-10-31T05:01:30;50.13;;;10.20;;
19798;SDS011;10059;59.850;10.454;2022-10-31T05:03:57;85.67;;;11.37;;
19798;SDS011;10059;59.850;10.454;2022-10-31T05:06:24;96.77;;;12.10;;
19798;SDS011;10059;59.850;10.454;2022-10-31T05:08:51;248.00;;;14.40;;
19798;SDS011;10059;59.850;10.454;2022-10-31T05:11:20;55.67;;;11.00;;
19798;SDS011;10059;59.850;10.454;2022-10-31T05:13:47;240.97;;;13.67;;
19798;SDS011;10059;59.850;10.454;2022-10-31T05:16:15;43.73;;;10.47;;
19798;SDS011;10059;59.850;10.454;2022-10-31T05:18:42;174.83;;;13.27;;
19798;SDS011;10059;59.850;10.454;2022-10-31T05:21:09;115.50;;;12.70;;
19798;SDS011;10059;59.850;10.454;2022-10-31T05:23:35;139.43;;;13.03;;
19798;SDS011;10059;59.850;10.454;2022-10-31T05:26:03;246.57;;;14.60;;
19798;SDS011;10059;59.850;10.454;2022-10-31T05:28:30;132.93;;;12.20;;
19798;SDS011;10059;59.850;10.454;2022-10-31T05:30:57;89.30;;;11.57;;
19798;SDS011;10059;59.850;10.454;2022-10-31T05:33:25;95.97;;;12.67;;
19798;SDS011;10059;59.850;10.454;2022-10-31T05:35:52;121.43;;;13.20;;
19798;SDS011;10059;59.850;10.454;2022-10-31T05:38:19;82.90;;;12.53;;
19798;SDS011;10059;59.850;10.454;2022-10-31T05:40:45;136.53;;;13.03;;
19798;SDS011;10059;59.850;10.454;2022-10-31T05:43:12;285.87;;;16.07;;
19798;SDS011;10059;59.850;10.454;2022-10-31T05:45:39;69.47;;;12.07;;
19798;SDS011;10059;59.850;10.454;2022-10-31T05:48:07;254.30;;;15.23;;
19798;SDS011;10059;59.850;10.454;2022-10-31T05:50:36;300.93;;;16.77;;
19798;SDS011;10059;59.850;10.454;2022-10-31T05:53:03;278.00;;;15.90;;
19798;SDS011;10059;59.850;10.454;2022-10-31T05:55:31;94.03;;;13.03;;
19798;SDS011;10059;59.850;10.454;2022-10-31T05:57:58;236.10;;;14.50;;
19798;SDS011;10059;59.850;10.454;2022-10-31T06:00:25;194.63;;;14.73;;
19798;SDS011;10059;59.850;10.454;2022-10-31T06:02:57;221.83;;;14.40;;
19798;SDS011;10059;59.850;10.454;2022-10-31T06:05:24;165.07;;;13.57;;
19798;SDS011;10059;59.850;10.454;2022-10-31T06:07:53;122.83;;;13.10;;
19798;SDS011;10059;59.850;10.454;2022-10-31T06:10:20;86.33;;;11.50;;
19798;SDS011;10059;59.850;10.454;2022-10-31T06:12:47;109.53;;;11.47;;
19798;SDS011;10059;59.850;10.454;2022-10-31T06:15:14;120.47;;;11.27;;
19798;SDS011;10059;59.850;10.454;2022-10-31T06:17:42;81.80;;;10.97;;
19798;SDS011;10059;59.850;10.454;2022-10-31T06:20:09;183.90;;;12.97;;
19798;SDS011;10059;59.850;10.454;2022-10-31T06:22:42;52.77;;;11.07;;
19798;SDS011;10059;59.850;10.454;2022-10-31T06:25:10;61.17;;;11.13;;
19798;SDS011;10059;59.850;10.454;2022-10-31T06:27:37;114.93;;;11.97;;
19798;SDS011;10059;59.850;10.454;2022-10-31T06:30:05;33.07;;;10.80;;
19798;SDS011;10059;59.850;10.454;2022-10-31T06:32:32;110.77;;;12.57;;
19798;SDS011;10059;59.850;10.454;2022-10-31T06:34:59;72.50;;;11.40;;
19798;SDS011;10059;59.850;10.454;2022-10-31T06:37:26;59.17;;;11.53;;
19798;SDS011;10059;59.850;10.454;2022-10-31T06:39:53;78.90;;;11.20;;
19798;SDS011;10059;59.850;10.454;2022-10-31T06:42:21;46.20;;;13.50;;
19798;SDS011;10059;59.850;10.454;2022-10-31T06:44:48;88.57;;;15.13;;
19798;SDS011;10059;59.850;10.454;2022-10-31T06:47:15;32.33;;;12.77;;
19798;SDS011;10059;59.850;10.454;2022-10-31T06:49:42;54.70;;;13.30;;
19798;SDS011;10059;59.850;10.454;2022-10-31T06:52:09;53.43;;;13.43;;
19798;SDS011;10059;59.850;10.454;2022-10-31T06:54:36;24.70;;;12.83;;
19798;SDS011;10059;59.850;10.454;2022-10-31T06:57:03;30.40;;;12.67;;
19798;SDS011;10059;59.850;10.454;2022-10-31T06:59:31;34.10;;;13.53;;
19798;SDS011;10059;59.850;10.454;2022-10-31T07:01:58;22.70;;;11.90;;
19798;SDS011;10059;59.850;10.454;2022-10-31T07:04:25;27.10;;;12.67;;
19798;SDS011;10059;59.850;10.454;2022-10-31T07:06:52;108.17;;;15.20;;
19798;SDS011;10059;59.850;10.454;2022-10-31T07:09:19;28.23;;;12.60;;
19798;SDS011;10059;59.850;10.454;2022-10-31T07:11:46;35.97;;;13.10;;
19798;SDS011;10059;59.850;10.454;2022-10-31T07:14:13;43.30;;;13.83;;
19798;SDS011;10059;59.850;10.454;2022-10-31T07:16:41;30.17;;;13.20;;
19798;SDS011;10059;59.850;10.454;2022-10-31T07:19:08;28.60;;;13.53;;
19798;SDS011;10059;59.850;10.454;2022-10-31T07:21:35;37.37;;;15.10;;
19798;SDS011;10059;59.850;10.454;2022-10-31T07:24:02;36.13;;;13.67;;
19798;SDS011;10059;59.850;10.454;2022-10-31T07:26:29;41.00;;;13.43;;
19798;SDS011;10059;59.850;10.454;2022-10-31T07:28:56;33.70;;;13.70;;
19798;SDS011;10059;59.850;10.454;2022-10-31T07:31:24;49.10;;;15.93;;
19798;SDS011;10059;59.850;10.454;2022-10-31T07:33:52;37.60;;;15.40;;
19798;SDS011;10059;59.850;10.454;2022-10-31T07:36:19;48.90;;;15.47;;
19798;SDS011;10059;59.850;10.454;2022-10-31T07:38:46;38.30;;;14.13;;
19798;SDS011;10059;59.850;10.454;2022-10-31T07:41:13;35.63;;;14.47;;
19798;SDS011;10059;59.850;10.454;2022-10-31T07:43:49;31.10;;;15.23;;
19798;SDS011;10059;59.850;10.454;2022-10-31T07:46:15;31.43;;;15.63;;
19798;SDS011;10059;59.850;10.454;2022-10-31T07:48:42;30.93;;;15.10;;
19798;SDS011;10059;59.850;10.454;2022-10-31T07:51:10;35.13;;;17.40;;
19798;SDS011;10059;59.850;10.454;2022-10-31T07:53:37;35.90;;;17.10;;
19798;SDS011;10059;59.850;10.454;2022-10-31T07:56:04;34.07;;;16.20;;
19798;SDS011;10059;59.850;10.454;2022-10-31T07:58:31;90.23;;;20.60;;
19798;SDS011;10059;59.850;10.454;2022-10-31T08:00:58;51.70;;;18.80;;
19798;SDS011;10059;59.850;10.454;2022-10-31T08:03:25;43.17;;;19.80;;
19798;SDS011;10059;59.850;10.454;2022-10-31T08:05:52;36.13;;;17.70;;
19798;SDS011;10059;59.850;10.454;2022-10-31T08:08:20;43.47;;;18.20;;
19798;SDS011;10059;59.850;10.454;2022-10-31T08:10:49;39.63;;;18.07;;
19798;SDS011;10059;59.850;10.454;2022-10-31T08:13:16;33.97;;;17.33;;
19798;SDS011;10059;59.850;10.454;2022-10-31T08:15:42;33.23;;;17.70;;
19798;SDS011;10059;59.850;10.454;2022-10-31T08:18:15;33.93;;;17.07;;
19798;SDS011;10059;59.850;10.454;2022-10-31T08:20:42;32.60;;;17.40;;
19798;SDS011;10059;59.850;10.454;2022-10-31T08:23:10;21.50;;;12.53;;
19798;SDS011;10059;59.850;10.454;2022-10-31T08:25:39;22.50;;;12.50;;
19798;SDS011;10059;59.850;10.454;2022-10-31T08:28:08;22.33;;;12.43;;
19798;SDS011;10059;59.850;10.454;2022-10-31T08:30:36;24.70;;;13.43;;
19798;SDS011;10059;59.850;10.454;2022-10-31T08:33:04;26.20;;;13.07;;
19798;SDS011;10059;59.850;10.454;2022-10-31T08:35:35;23.83;;;13.13;;
19798;SDS011;10059;59.850;10.454;2022-10-31T08:38:02;22.07;;;12.07;;
19798;SDS011;10059;59.850;10.454;2022-10-31T08:40:30;21.37;;;12.40;;
19798;SDS011;10059;59.850;10.454;2022-10-31T08:43:00;24.27;;;12.97;;
19798;SDS011;10059;59.850;10.454;2022-10-31T08:45:28;23.43;;;13.97;;
19798;SDS011;10059;59.850;10.454;2022-10-31T08:47:56;24.43;;;13.27;;
19798;SDS011;10059;59.850;10.454;2022-10-31T08:50:24;23.33;;;12.30;;
19798;SDS011;10059;59.850;10.454;2022-10-31T08:52:52;27.83;;;12.73;;
19798;SDS011;10059;59.850;10.454;2022-10-31T08:55:19;21.10;;;11.27;;
19798;SDS011;10059;59.850;10.454;2022-10-31T08:57:46;21.73;;;12.10;;
19798;SDS011;10059;59.850;10.454;2022-10-31T09:00:14;17.23;;;10.37;;
19798;SDS011;10059;59.850;10.454;2022-10-31T09:02:41;22.33;;;10.20;;
19798;SDS011;10059;59.850;10.454;2022-10-31T09:05:08;18.37;;;10.47;;
19798;SDS011;10059;59.850;10.454;2022-10-31T09:07:35;14.03;;;8.23;;
19798;SDS011;10059;59.850;10.454;2022-10-31T09:10:02;18.07;;;7.73;;
19798;SDS011;10059;59.850;10.454;2022-10-31T09:12:29;14.40;;;8.00;;
19798;SDS011;10059;59.850;10.454;2022-10-31T09:14:56;12.80;;;7.70;;
19798;SDS011;10059;59.850;10.454;2022-10-31T09:17:27;13.97;;;7.17;;
19798;SDS011;10059;59.850;10.454;2022-10-31T09:19:54;13.20;;;7.87;;
19798;SDS011;10059;59.850;10.454;2022-10-31T09:22:21;12.07;;;7.23;;
19798;SDS011;10059;59.850;10.454;2022-10-31T09:24:48;11.90;;;7.37;;
19798;SDS011;10059;59.850;10.454;2022-10-31T09:27:15;11.90;;;7.13;;
19798;SDS011;10059;59.850;10.454;2022-10-31T09:29:42;15.93;;;6.83;;
19798;SDS011;10059;59.850;10.454;2022-10-31T09:32:09;15.77;;;8.37;;
19798;SDS011;10059;59.850;10.454;2022-10-31T09:34:37;9.50;;;6.10;;
19798;SDS011;10059;59.850;10.454;2022-10-31T09:37:04;10.17;;;6.53;;
19798;SDS011;10059;59.850;10.454;2022-10-31T09:39:31;12.00;;;6.10;;
19798;SDS011;10059;59.850;10.454;2022-10-31T09:42:03;11.83;;;6.47;;
19798;SDS011;10059;59.850;10.454;2022-10-31T09:44:47;14.70;;;8.37;;
19798;SDS011;10059;59.850;10.454;2022-10-31T09:47:20;14.73;;;8.27;;
19798;SDS011;10059;59.850;10.454;2022-10-31T09:49:58;14.53;;;8.83;;
19798;SDS011;10059;59.850;10.454;2022-10-31T09:52:41;12.73;;;7.80;;
19798;SDS011;10059;59.850;10.454;2022-10-31T09:55:13;20.07;;;9.03;;
19798;SDS011;10059;59.850;10.454;2022-10-31T09:57:43;21.53;;;12.17;;
19798;SDS011;10059;59.850;10.454;2022-10-31T10:00:15;17.57;;;11.23;;
19798;SDS011;10059;59.850;10.454;2022-10-31T10:02:44;15.37;;;9.23;;
19798;SDS011;10059;59.850;10.454;2022-10-31T10:05:17;20.90;;;10.10;;
19798;SDS011;10059;59.850;10.454;2022-10-31T10:07:49;17.90;;;8.80;;
19798;SDS011;10059;59.850;10.454;2022-10-31T10:10:25;13.87;;;8.67;;
19798;SDS011;10059;59.850;10.454;2022-10-31T10:13:01;13.40;;;8.00;;
19798;SDS011;10059;59.850;10.454;2022-10-31T10:15:44;18.57;;;8.53;;
19798;SDS011;10059;59.850;10.454;2022-10-31T10:18:23;13.70;;;8.37;;
19798;SDS011;10059;59.850;10.454;2022-10-31T10:21:06;12.80;;;7.60;;
19798;SDS011;10059;59.850;10.454;2022-10-31T10:23:46;11.97;;;6.93;;
19798;SDS011;10059;59.850;10.454;2022-10-31T10:26:21;15.87;;;8.43;;
19798;SDS011;10059;59.850;10.454;2022-10-31T10:28:51;15.53;;;8.87;;
19798;SDS011;10059;59.850;10.454;2022-10-31T10:31:24;16.87;;;8.53;;
19798;SDS011;10059;59.850;10.454;2022-10-31T10:33:57;15.80;;;8.20;;
19798;SDS011;10059;59.850;10.454;2022-10-31T10:36:32;17.57;;;8.33;;
19798;SDS011;10059;59.850;10.454;2022-10-31T10:39:08;16.60;;;10.13;;
19798;SDS011;10059;59.850;10.454;2022-10-31T10:41:43;17.63;;;9.63;;
19798;SDS011;10059;59.850;10.454;2022-10-31T10:44:27;20.20;;;10.87;;
19798;SDS011;10059;59.850;10.454;2022-10-31T10:47:11;19.77;;;11.17;;
19798;SDS011;10059;59.850;10.454;2022-10-31T10:49:56;22.17;;;11.07;;
19798;SDS011;10059;59.850;10.454;2022-10-31T10:52:27;26.37;;;11.67;;
19798;SDS011;10059;59.850;10.454;2022-10-31T10:55:03;26.07;;;12.23;;
19798;SDS011;10059;59.850;10.454;2022-10-31T10:57:42;19.93;;;10.90;;
19798;SDS011;10059;59.850;10.454;2022-10-31T11:00:20;15.83;;;9.30;;
19798;SDS011;10059;59.850;10.454;2022-10-31T11:02:48;16.27;;;8.53;;
19798;SDS011;10059;59.850;10.454;2022-10-31T11:05:19;11.70;;;7.57;;
19798;SDS011;10059;59.850;10.454;2022-10-31T11:07:52;10.67;;;6.40;;
19798;SDS011;10059;59.850;10.454;2022-10-31T11:10:19;9.03;;;5.77;;
19798;SDS011;10059;59.850;10.454;2022-10-31T11:12:56;13.37;;;6.77;;
19798;SDS011;10059;59.850;10.454;2022-10-31T11:15:27;11.73;;;5.70;;
19798;SDS011;10059;59.850;10.454;2022-10-31T11:17:56;9.30;;;5.57;;
19798;SDS011;10059;59.850;10.454;2022-10-31T11:20:26;9.97;;;5.87;;
19798;SDS011;10059;59.850;10.454;2022-10-31T11:23:02;10.60;;;5.30;;
19798;SDS011;10059;59.850;10.454;2022-10-31T11:25:47;8.23;;;5.50;;
19798;SDS011;10059;59.850;10.454;2022-10-31T11:28:16;7.00;;;4.93;;
19798;SDS011;10059;59.850;10.454;2022-10-31T11:30:45;7.67;;;5.47;;
19798;SDS011;10059;59.850;10.454;2022-10-31T11:33:16;10.07;;;5.73;;
19798;SDS011;10059;59.850;10.454;2022-10-31T11:35:46;11.50;;;5.67;;
19798;SDS011;10059;59.850;10.454;2022-10-31T11:38:17;10.40;;;5.63;;
19798;SDS011;10059;59.850;10.454;2022-10-31T11:40:53;9.70;;;6.47;;
19798;SDS011;10059;59.850;10.454;2022-10-31T11:43:21;9.20;;;6.00;;
19798;SDS011;10059;59.850;10.454;2022-10-31T11:45:49;11.23;;;6.30;;
19798;SDS011;10059;59.850;10.454;2022-10-31T11:48:17;11.63;;;6.20;;
19798;SDS011;10059;59.850;10.454;2022-10-31T11:50:50;10.67;;;6.40;;
19798;SDS011;10059;59.850;10.454;2022-10-31T11:53:20;7.67;;;5.40;;
19798;SDS011;10059;59.850;10.454;2022-10-31T11:56:04;10.00;;;5.90;;
19798;SDS011;10059;59.850;10.454;2022-10-31T11:58:33;13.03;;;6.53;;
19798;SDS011;10059;59.850;10.454;2022-10-31T12:01:00;10.83;;;6.73;;
19798;SDS011;10059;59.850;10.454;2022-10-31T12:03:29;9.63;;;6.43;;
19798;SDS011;10059;59.850;10.454;2022-10-31T12:06:08;12.70;;;6.77;;
19798;SDS011;10059;59.850;10.454;2022-10-31T12:08:40;11.57;;;6.77;;
19798;SDS011;10059;59.850;10.454;2022-10-31T12:11:10;11.40;;;6.87;;
19798;SDS011;10059;59.850;10.454;2022-10-31T12:13:48;14.57;;;7.00;;
19798;SDS011;10059;59.850;10.454;2022-10-31T12:16:25;13.20;;;6.63;;
19798;SDS011;10059;59.850;10.454;2022-10-31T12:18:58;10.80;;;6.20;;
19798;SDS011;10059;59.850;10.454;2022-10-31T12:21:33;9.10;;;5.20;;
19798;SDS011;10059;59.850;10.454;2022-10-31T12:24:16;10.53;;;4.60;;
19798;SDS011;10059;59.850;10.454;2022-10-31T12:26:54;8.57;;;4.40;;
19798;SDS011;10059;59.850;10.454;2022-10-31T12:29:43;7.60;;;4.23;;
19798;SDS011;10059;59.850;10.454;2022-10-31T12:32:28;9.10;;;4.57;;
19798;SDS011;10059;59.850;10.454;2022-10-31T12:35:05;9.50;;;4.27;;
19798;SDS011;10059;59.850;10.454;2022-10-31T12:37:46;8.73;;;4.40;;
19798;SDS011;10059;59.850;10.454;2022-10-31T12:40:26;8.50;;;3.60;;
19798;SDS011;10059;59.850;10.454;2022-10-31T12:43:17;8.27;;;3.80;;
19798;SDS011;10059;59.850;10.454;2022-10-31T12:45:56;6.10;;;3.50;;
19798;SDS011;10059;59.850;10.454;2022-10-31T12:51:26;7.40;;;3.03;;
19798;SDS011;10059;59.850;10.454;2022-10-31T12:54:12;8.10;;;2.93;;
19798;SDS011;10059;59.850;10.454;2022-10-31T12:57:00;7.23;;;2.97;;
19798;SDS011;10059;59.850;10.454;2022-10-31T12:59:33;6.07;;;2.40;;
19798;SDS011;10059;59.850;10.454;2022-10-31T13:02:06;5.63;;;2.30;;
19798;SDS011;10059;59.850;10.454;2022-10-31T13:04:42;5.73;;;2.20;;
19798;SDS011;10059;59.850;10.454;2022-10-31T13:07:14;8.20;;;2.20;;
19798;SDS011;10059;59.850;10.454;2022-10-31T13:09:48;6.17;;;2.03;;
19798;SDS011;10059;59.850;10.454;2022-10-31T13:12:21;5.33;;;2.03;;
19798;SDS011;10059;59.850;10.454;2022-10-31T13:14:49;7.67;;;2.17;;
19798;SDS011;10059;59.850;10.454;2022-10-31T13:17:21;7.10;;;2.20;;
19798;SDS011;10059;59.850;10.454;2022-10-31T13:19:53;5.20;;;2.20;;
19798;SDS011;10059;59.850;10.454;2022-10-31T13:22:27;5.43;;;2.27;;
19798;SDS011;10059;59.850;10.454;2022-10-31T13:25:02;5.67;;;1.97;;
19798;SDS011;10059;59.850;10.454;2022-10-31T13:27:41;7.60;;;2.50;;
19798;SDS011;10059;59.850;10.454;2022-10-31T13:30:15;7.50;;;2.23;;
19798;SDS011;10059;59.850;10.454;2022-10-31T13:32:44;7.53;;;2.07;;
19798;SDS011;10059;59.850;10.454;2022-10-31T13:35:17;7.13;;;1.93;;
19798;SDS011;10059;59.850;10.454;2022-10-31T13:37:50;7.03;;;2.33;;
19798;SDS011;10059;59.850;10.454;2022-10-31T13:40:26;5.47;;;1.80;;
19798;SDS011;10059;59.850;10.454;2022-10-31T13:43:02;8.20;;;2.10;;
19798;SDS011;10059;59.850;10.454;2022-10-31T13:45:46;7.57;;;2.20;;
19798;SDS011;10059;59.850;10.454;2022-10-31T13:48:19;13.33;;;2.50;;
19798;SDS011;10059;59.850;10.454;2022-10-31T13:51:01;4.67;;;2.10;;
19798;SDS011;10059;59.850;10.454;2022-10-31T13:53:43;7.43;;;2.20;;
19798;SDS011;10059;59.850;10.454;2022-10-31T13:56:15;8.23;;;2.50;;
19798;SDS011;10059;59.850;10.454;2022-10-31T14:01:30;10.93;;;2.90;;
19798;SDS011;10059;59.850;10.454;2022-10-31T14:04:00;9.77;;;3.10;;
19798;SDS011;10059;59.850;10.454;2022-10-31T14:06:40;7.23;;;2.57;;
19798;SDS011;10059;59.850;10.454;2022-10-31T14:12:03;6.93;;;2.57;;
19798;SDS011;10059;59.850;10.454;2022-10-31T14:14:35;7.93;;;2.70;;
19798;SDS011;10059;59.850;10.454;2022-10-31T14:17:16;8.20;;;3.10;;
19798;SDS011;10059;59.850;10.454;2022-10-31T14:19:59;9.00;;;3.23;;
19798;SDS011;10059;59.850;10.454;2022-10-31T14:22:31;7.80;;;2.50;;
19798;SDS011;10059;59.850;10.454;2022-10-31T14:24:59;9.37;;;2.77;;
19798;SDS011;10059;59.850;10.454;2022-10-31T14:27:33;9.13;;;3.07;;
19798;SDS011;10059;59.850;10.454;2022-10-31T14:30:16;5.97;;;2.80;;
19798;SDS011;10059;59.850;10.454;2022-10-31T14:32:49;8.60;;;2.93;;
19798;SDS011;10059;59.850;10.454;2022-10-31T14:35:18;6.20;;;2.60;;
19798;SDS011;10059;59.850;10.454;2022-10-31T14:40:45;9.60;;;2.83;;
19798;SDS011;10059;59.850;10.454;2022-10-31T14:43:38;9.63;;;3.07;;
19798;SDS011;10059;59.850;10.454;2022-10-31T14:46:17;6.33;;;3.03;;
19798;SDS011;10059;59.850;10.454;2022-10-31T14:49:00;11.97;;;3.93;;
19798;SDS011;10059;59.850;10.454;2022-10-31T14:51:38;13.63;;;3.57;;
19798;SDS011;10059;59.850;10.454;2022-10-31T14:54:07;12.13;;;3.87;;